Lone Rock, WI (53556)

04:29 AM CST die 22o December, anno 2014 (GMT -0600)
Sweet Rock Field | Change Station
CLOSE
Current Station
Personal Weather Stations
Location: Avoca, WI
Elevation: 1158 ft
Nearby Weather Stations

Elev 1158 ft 43.14 °N, 90.29 °W | Updated 9 seconds ago

Light Rain
Pluvia Levis
33.3 °F
Feels Like 28 °F
N
5.4
Ventus Variabilis Ventus from Inter Austrum et Zephyrum
Gusts 9.2 mph

Hodie
High -- | Low -- °F
--% Chance of Precip.
Yesterday
High -- | Low -- °F
Precip. -- in
7:29 AM 4:28 PM
New, 0% visible
Pressio 29.87 in
Visibilitas 6.0 milia passuum
Clouds Aequaliter Nubila 1400 ft
Frigus Venti 28 °F
Frigus in quo Ros apparet 28 °F
Umor 82%
Rainfall 0.00 in
Snow Depth Not available.
UV 0 out of 12
Pollen .10 out of 12
Air Quality Not available.
Flu Activity Not available.
METAR KLNR 220956Z AUTO 12008KT 6SM -RA OVC014 03/M01 A2986 RMK AO2 RAB54SNB05E20 SLP113 P0000 T00331006

More Conditions Fewer Conditions

Pressio 29.87 in
Visibilitas 6.0 milia passuum
Clouds Aequaliter Nubila 1400 ft
Frigus Venti 28 °F
Frigus in quo Ros apparet 28 °F
Umor 82%
Rainfall 0.00 in
Snow Depth Not available.
UV 0 out of 12
Pollen .10 out of 12
Air Quality Not available.
Flu Activity Not available.
METAR KLNR 220956Z AUTO 12008KT 6SM -RA OVC014 03/M01 A2986 RMK AO2 RAB54SNB05E20 SLP113 P0000 T00331006

More Conditions Fewer Conditions

10-Day Weather Forecast

Almanac

Astronomy

Dec. 22, 2014 Rise Set
Actual Time
Civil Twilight
Nautical Twilight
Astronomical Twilight
Moon
Length Of Visible Light
Length of Day
Tomorrow will be .
, % of the Moon is Illuminated

Today's Extremes

State Highs State Lows

Community

WunderPhotos

Upload Photos

1,779,583 photos uploaded!

WunderBlogs® & News

Nearby

Air Quality

  Air Quality AQ Index Pollutant
Not available.

Snow Depth

Station Depth Elevation

Earthquake Activity

City Distance Mag. Time & Date
Minimum magnitude displayed is 2.5.

Coastal Water Temperatures

Locus Calor

Nearby Weather Stations